Time;durP1;ratioP1;P1;durP2;ratioP2;P2;SDS_P1;SDS_P2;PMS_P1;PMS_P2;Temp;Humidity;BMP_temperature;BMP_pressure;BME280_temperature;BME280_humidity;BME280_pressure;Samples;Min_cycle;Max_cycle;Signal;HPM_P1;HPM_P2
2021/07/08 00:01:27;;;;;;;4.95;4.55;;;;;;;30.63;42.70;101370.78;144992;587;6004;-84
2021/07/08 00:03:54;;;;;;;5.47;5.07;;;;;;;30.53;43.22;101375.69;144992;577;6012;-84
2021/07/08 00:06:21;;;;;;;4.68;4.28;;;;;;;30.41;42.42;101370.00;144992;576;6013;-84
2021/07/08 00:08:48;;;;;;;7.07;5.07;;;;;;;30.35;42.88;101371.97;144992;625;6004;-84
2021/07/08 00:11:14;;;;;;;5.00;4.50;;;;;;;30.32;42.98;101369.41;144992;630;6004;-83
2021/07/08 00:13:41;;;;;;;5.15;4.65;;;;;;;30.29;43.20;101372.22;144992;567;6004;-84
2021/07/08 00:16:07;;;;;;;7.18;4.95;;;;;;;30.22;42.71;101365.37;144992;568;6004;-84
2021/07/08 00:18:34;;;;;;;5.57;4.87;;;;;;;30.06;43.03;101362.47;144992;601;6004;-83
2021/07/08 00:21:00;;;;;;;5.80;4.62;;;;;;;29.95;41.68;101362.06;144992;603;6004;-84
2021/07/08 00:23:27;;;;;;;5.03;4.62;;;;;;;29.80;43.34;101369.78;144992;633;6004;-85
2021/07/08 00:25:55;;;;;;;6.15;5.20;;;;;;;29.81;43.30;101363.50;144992;655;6004;-83
2021/07/08 00:28:22;;;;;;;5.37;4.87;;;;;;;29.81;43.41;101368.84;144992;620;6004;-86
2021/07/08 00:30:50;;;;;;;5.35;4.87;;;;;;;29.82;43.67;101364.38;144992;566;6004;-85
2021/07/08 00:33:17;;;;;;;5.97;5.28;;;;;;;29.75;43.33;101361.03;144992;642;6004;-86
2021/07/08 00:35:43;;;;;;;5.07;4.68;;;;;;;29.68;43.29;101356.84;144992;593;6004;-83
2021/07/08 00:38:10;;;;;;;5.50;4.87;;;;;;;29.63;42.73;101359.72;144992;574;6004;-85
2021/07/08 00:40:38;;;;;;;5.43;4.93;;;;;;;29.60;43.46;101356.31;144992;596;6004;-86
2021/07/08 00:43:05;;;;;;;5.00;4.60;;;;;;;29.55;41.73;101364.50;144992;630;6004;-85
2021/07/08 00:45:32;;;;;;;5.35;4.82;;;;;;;29.53;42.79;101361.03;144992;584;6004;-85
2021/07/08 00:47:59;;;;;;;5.25;4.72;;;;;;;29.51;42.91;101365.56;144992;605;6004;-84
2021/07/08 00:50:34;;;;;;;6.72;4.65;;;;;;;29.54;43.80;101362.78;144991;592;6000;-86
2021/07/08 00:53:01;;;;;;;5.22;4.72;;;;;;;29.57;43.61;101361.78;144993;584;6002;-86
2021/07/08 00:55:28;;;;;;;5.37;4.50;;;;;;;29.53;43.03;101360.16;144993;628;6002;-84
2021/07/08 00:57:55;;;;;;;5.55;5.00;;;;;;;29.54;43.34;101360.09;144993;604;6002;-84
2021/07/08 01:00:30;;;;;;;5.85;4.90;;;;;;;29.46;41.63;101357.72;144993;626;6002;-83
2021/07/08 01:02:58;;;;;;;5.43;4.95;;;;;;;29.40;43.22;101357.06;144993;696;6002;-81
2021/07/08 01:05:35;;;;;;;5.12;4.62;;;;;;;29.45;42.20;101357.78;144993;595;6002;-83
2021/07/08 01:08:02;;;;;;;5.50;5.00;;;;;;;29.38;43.23;101351.81;144993;601;6002;-83
2021/07/08 01:11:09;;;;;;;6.53;5.10;;;;;;;29.46;43.24;101352.37;144993;583;6002;-84
2021/07/08 01:13:40;;;;;;;5.43;4.93;;;;;;;29.62;43.27;101360.66;144993;626;6000;-82
2021/07/08 01:16:06;;;;;;;5.43;4.93;;;;;;;29.73;43.31;101365.56;144993;624;6002;-84
2021/07/08 01:18:33;;;;;;;5.30;4.80;;;;;;;29.80;43.15;101368.91;144993;570;6002;-84
2021/07/08 01:21:23;;;;;;;5.32;4.80;;;;;;;29.85;42.64;101369.59;144993;616;6002;-84
2021/07/08 01:23:50;;;;;;;5.45;4.95;;;;;;;29.88;42.47;101360.59;144993;564;6002;-85
2021/07/08 01:26:16;;;;;;;5.80;5.28;;;;;;;29.88;42.82;101356.09;144992;586;6002;-85
2021/07/08 01:28:43;;;;;;;5.20;4.70;;;;;;;29.89;42.44;101360.53;144992;583;6002;-84
2021/07/08 01:31:10;;;;;;;6.00;5.30;;;;;;;29.87;42.85;101364.19;144992;596;6002;-83
2021/07/08 01:33:37;;;;;;;5.30;4.90;;;;;;;29.86;42.68;101360.66;144992;573;6002;-84
2021/07/08 01:36:04;;;;;;;5.62;5.12;;;;;;;29.88;42.37;101363.25;144992;577;6002;-81
2021/07/08 01:38:30;;;;;;;6.12;5.03;;;;;;;29.89;42.24;101362.31;144993;579;6002;-83
2021/07/08 01:40:57;;;;;;;6.10;5.50;;;;;;;29.89;42.58;101356.94;144993;575;6002;-83
2021/07/08 01:43:23;;;;;;;5.50;5.00;;;;;;;29.90;42.23;101359.56;144993;569;6002;-84
2021/07/08 01:45:50;;;;;;;6.25;4.85;;;;;;;29.92;42.15;101363.03;144993;578;6002;-84
2021/07/08 01:48:16;;;;;;;5.70;5.20;;;;;;;29.82;42.28;101359.88;144993;604;6002;-85
2021/07/08 01:50:43;;;;;;;5.43;4.93;;;;;;;29.74;42.75;101364.63;144993;564;6002;-85
2021/07/08 01:53:09;;;;;;;5.25;4.85;;;;;;;29.70;42.39;101359.47;144993;598;6002;-85
2021/07/08 01:55:36;;;;;;;6.30;5.20;;;;;;;29.69;42.77;101363.09;144993;593;6002;-84
2021/07/08 01:58:20;;;;;;;5.53;4.97;;;;;;;29.70;42.59;101356.78;144993;614;6002;-83
2021/07/08 02:00:57;;;;;;;5.85;5.07;;;;;;;29.73;42.67;101362.03;144993;680;6002;-83
2021/07/08 02:03:26;;;;;;;7.10;5.57;;;;;;;29.74;42.18;101364.63;144993;617;6002;-84
2021/07/08 02:05:52;;;;;;;5.60;5.10;;;;;;;29.68;42.56;101354.19;144992;583;6002;-84
2021/07/08 02:08:19;;;;;;;6.90;5.32;;;;;;;29.70;42.85;101354.12;144993;679;6002;-84
2021/07/08 02:10:46;;;;;;;5.57;5.12;;;;;;;29.73;42.83;101357.53;144993;590;6002;-84
2021/07/08 02:13:12;;;;;;;6.07;5.47;;;;;;;29.72;42.36;101358.50;144993;597;6002;-84
2021/07/08 02:15:39;;;;;;;6.05;5.43;;;;;;;29.69;42.62;101358.59;144993;579;6002;-83
2021/07/08 02:18:06;;;;;;;5.57;5.07;;;;;;;29.72;42.66;101357.62;144993;579;6002;-86
2021/07/08 02:20:33;;;;;;;7.18;5.45;;;;;;;29.75;42.23;101363.72;144993;593;6002;-83
2021/07/08 02:23:00;;;;;;;5.70;5.10;;;;;;;29.75;42.54;101363.72;144993;578;6002;-84
2021/07/08 02:25:26;;;;;;;6.03;5.15;;;;;;;29.77;42.11;101363.66;144993;593;6002;-84
2021/07/08 02:27:54;;;;;;;6.32;4.85;;;;;;;29.78;42.10;101362.69;144993;589;6002;-84
2021/07/08 02:30:23;;;;;;;5.07;4.68;;;;;;;29.78;42.20;101362.69;144993;564;6002;-86
2021/07/08 02:33:00;;;;;;;5.87;5.00;;;;;;;29.79;42.27;101368.03;144994;706;5002;-89
2021/07/08 02:35:39;;;;;;;10.73;5.75;;;;;;;29.82;41.84;101370.56;144994;571;5002;-81
2021/07/08 02:38:09;;;;;;;7.57;6.00;;;;;;;29.82;42.13;101372.41;144994;575;5002;-83
2021/07/08 02:40:40;;;;;;;9.57;6.65;;;;;;;29.85;42.12;101377.62;144994;569;5002;-84
2021/07/08 02:43:07;;;;;;;8.82;6.62;;;;;;;29.81;42.00;101376.00;144994;655;5002;-84
2021/07/08 02:45:37;;;;;;;9.43;7.45;;;;;;;29.77;42.22;101369.88;144994;564;5002;-83
2021/07/08 02:48:09;;;;;;;8.38;7.18;;;;;;;29.77;42.62;101374.34;144994;658;5002;-82
2021/07/08 02:50:37;;;;;;;13.18;8.30;;;;;;;29.73;42.49;101378.06;144994;648;5002;-84
2021/07/08 02:53:04;;;;;;;11.50;7.40;;;;;;;29.69;42.51;101381.81;144994;590;5002;-84
2021/07/08 02:55:30;;;;;;;9.02;6.80;;;;;;;29.64;42.53;101382.87;144993;573;5002;-83
2021/07/08 02:57:59;;;;;;;8.10;5.57;;;;;;;29.58;42.57;101387.59;144994;702;5002;-83
2021/07/08 03:00:25;;;;;;;6.37;5.53;;;;;;;29.52;43.00;101387.84;144994;636;5003;-83
2021/07/08 03:02:53;;;;;;;8.23;5.40;;;;;;;29.52;43.03;101383.34;144994;612;5002;-84
2021/07/08 03:05:20;;;;;;;7.50;5.40;;;;;;;29.52;42.84;101380.66;144994;670;5002;-84
2021/07/08 03:07:46;;;;;;;6.62;5.93;;;;;;;29.53;42.66;101384.25;144994;586;5003;-84
2021/07/08 03:10:14;;;;;;;8.05;5.78;;;;;;;29.54;42.58;101388.63;144994;566;5002;-82
2021/07/08 03:12:41;;;;;;;7.37;5.95;;;;;;;29.55;42.85;101390.38;144994;584;5002;-83
2021/07/08 03:15:09;;;;;;;8.45;6.35;;;;;;;29.54;42.85;101384.19;144994;677;5002;-84
2021/07/08 03:17:37;;;;;;;7.80;6.25;;;;;;;29.52;42.81;101382.47;144994;621;5002;-84
2021/07/08 03:20:11;;;;;;;6.65;6.05;;;;;;;29.53;42.48;101394.94;144994;569;5002;-83
2021/07/08 03:22:43;;;;;;;6.50;5.90;;;;;;;29.52;42.58;101390.50;144994;669;5002;-84
2021/07/08 03:25:12;;;;;;;7.47;5.65;;;;;;;29.46;42.63;101388.94;144994;620;5002;-84
2021/07/08 03:27:39;;;;;;;9.80;5.68;;;;;;;29.42;43.14;101390.84;144993;617;5002;-83
2021/07/08 03:30:09;;;;;;;6.93;5.80;;;;;;;29.40;43.14;101398.06;144994;569;5002;-85
2021/07/08 03:32:36;;;;;;;7.60;5.95;;;;;;;29.43;42.87;101395.28;144994;599;5002;-85
2021/07/08 03:35:04;;;;;;;8.10;5.90;;;;;;;29.44;42.94;101406.84;144994;572;5002;-84
2021/07/08 03:37:30;;;;;;;7.35;6.25;;;;;;;29.45;42.70;101403.25;144994;613;5002;-83
2021/07/08 03:39:57;;;;;;;8.55;6.00;;;;;;;29.47;42.58;101407.59;144994;571;5002;-83
2021/07/08 03:42:23;;;;;;;6.80;6.15;;;;;;;29.50;42.73;101406.63;144994;624;5002;-83
2021/07/08 03:44:51;;;;;;;6.55;5.82;;;;;;;29.53;42.73;101410.97;144994;569;5002;-85
2021/07/08 03:47:18;;;;;;;6.25;5.62;;;;;;;29.48;43.03;101411.16;144994;615;5002;-85
2021/07/08 03:49:44;;;;;;;7.25;5.65;;;;;;;29.51;42.63;101416.41;144994;709;5002;-84
2021/07/08 03:52:10;;;;;;;9.40;6.20;;;;;;;29.53;42.89;101411.84;144994;631;5002;-84
2021/07/08 03:54:37;;;;;;;9.65;6.70;;;;;;;29.55;42.59;101412.66;144994;580;5002;-83
2021/07/08 03:57:04;;;;;;;8.20;5.95;;;;;;;29.57;42.83;101415.25;144994;581;5002;-83
2021/07/08 03:59:31;;;;;;;8.65;6.60;;;;;;;29.58;42.45;101419.69;144994;591;5002;-84
2021/07/08 04:01:57;;;;;;;15.35;6.22;;;;;;;29.59;42.85;101422.31;144994;564;5002;-82
2021/07/08 04:04:24;;;;;;;9.55;6.43;;;;;;;29.60;42.76;101416.00;144994;594;5002;-83
2021/07/08 04:06:51;;;;;;;11.40;6.50;;;;;;;29.62;42.87;101414.16;144994;583;5002;-84
2021/07/08 04:09:17;;;;;;;9.35;6.53;;;;;;;29.64;42.71;101416.78;144994;572;5002;-83
2021/07/08 04:11:43;;;;;;;7.68;6.12;;;;;;;29.64;42.61;101422.12;144994;575;5002;-83
2021/07/08 04:14:10;;;;;;;11.88;7.28;;;;;;;29.64;42.80;101427.47;144994;656;5002;-85
2021/07/08 04:16:36;;;;;;;7.18;6.47;;;;;;;29.65;42.68;101426.53;144994;569;5002;-85
2021/07/08 04:19:04;;;;;;;8.98;7.07;;;;;;;29.67;42.76;101430.91;144994;609;5003;-82
2021/07/08 04:21:30;;;;;;;12.85;7.45;;;;;;;29.70;42.78;101431.69;144994;667;5002;-84
2021/07/08 04:23:56;;;;;;;15.68;8.23;;;;;;;29.72;43.23;101436.06;144994;572;5002;-83
2021/07/08 04:26:23;;;;;;;12.80;7.82;;;;;;;29.73;43.26;101437.78;144994;673;5002;-82
2021/07/08 04:28:49;;;;;;;15.30;8.38;;;;;;;29.75;43.03;101441.31;144994;696;5002;-83
2021/07/08 04:31:16;;;;;;;14.75;7.85;;;;;;;29.77;43.12;101438.56;144994;746;5002;-84
2021/07/08 04:33:46;;;;;;;18.27;8.05;;;;;;;29.80;43.32;101442.03;144994;592;5002;-83
2021/07/08 04:36:14;;;;;;;10.30;6.80;;;;;;;29.83;43.42;101451.75;144994;594;5002;-84
2021/07/08 04:38:46;;;;;;;13.18;7.80;;;;;;;29.90;43.50;101450.56;144994;569;5002;-83
2021/07/08 04:41:13;;;;;;;12.68;7.50;;;;;;;29.94;43.51;101456.66;144994;622;5002;-84
2021/07/08 04:43:46;;;;;;;16.70;7.50;;;;;;;29.95;43.98;101464.63;144994;593;5002;-86
2021/07/08 04:46:16;;;;;;;10.20;7.40;;;;;;;29.81;44.01;101457.16;144994;612;5002;-84
2021/07/08 04:48:43;;;;;;;10.75;7.85;;;;;;;29.73;45.03;101461.88;144994;582;5002;-84
2021/07/08 04:51:11;;;;;;;14.65;7.72;;;;;;;29.58;46.18;101466.03;144994;571;5002;-83
2021/07/08 04:53:38;;;;;;;10.10;8.15;;;;;;;29.62;45.33;101462.31;144994;570;5002;-82
2021/07/08 04:56:05;;;;;;;17.25;9.00;;;;;;;29.52;45.59;101460.91;144994;569;5002;-84
2021/07/08 04:58:31;;;;;;;27.92;9.52;;;;;;;29.53;45.26;101467.16;144994;570;5002;-84
2021/07/08 05:00:58;;;;;;;17.40;8.98;;;;;;;29.41;44.36;101468.47;144994;646;5002;-84
2021/07/08 05:03:24;;;;;;;20.15;9.13;;;;;;;29.53;45.07;101470.69;144994;580;5002;-84
2021/07/08 05:05:51;;;;;;;21.12;10.10;;;;;;;29.71;44.65;101469.09;144994;569;5002;-84
2021/07/08 05:08:17;;;;;;;20.00;10.32;;;;;;;29.60;44.36;101480.22;144994;585;5002;-83
2021/07/08 05:10:44;;;;;;;19.37;11.05;;;;;;;29.58;44.77;101473.19;144994;566;5002;-84
2021/07/08 05:13:10;;;;;;;23.92;11.40;;;;;;;29.71;44.50;101477.13;144994;565;5002;-83
2021/07/08 05:15:37;;;;;;;21.83;11.63;;;;;;;29.86;44.57;101478.38;144994;643;5002;-83
2021/07/08 05:18:04;;;;;;;16.33;10.43;;;;;;;29.96;44.32;101469.03;144994;570;5002;-85
2021/07/08 05:20:31;;;;;;;18.10;9.95;;;;;;;29.92;44.35;101472.75;144994;617;5002;-84
2021/07/08 05:25:47;;;;;;;12.80;8.30;;;;;;;30.19;44.43;101484.19;144994;627;5004;-84
2021/07/08 05:28:13;;;;;;;12.40;8.32;;;;;;;30.32;44.36;101484.56;144994;640;5004;-84
2021/07/08 05:30:41;;;;;;;12.73;7.93;;;;;;;30.41;44.15;101486.00;144994;568;5004;-84
2021/07/08 05:33:07;;;;;;;13.32;8.20;;;;;;;30.38;44.23;101497.75;144994;605;5004;-84
2021/07/08 05:35:34;;;;;;;18.30;8.07;;;;;;;30.43;43.77;101500.19;144994;576;5004;-85
2021/07/08 05:38:00;;;;;;;13.45;7.70;;;;;;;30.49;43.83;101496.41;144994;588;5004;-84
2021/07/08 05:40:26;;;;;;;20.15;8.10;;;;;;;30.52;43.74;101499.81;144994;599;5004;-84
2021/07/08 05:43:04;;;;;;;12.40;8.15;;;;;;;30.53;44.62;101509.62;144994;612;5004;-79
2021/07/08 05:45:45;;;;;;;14.07;8.40;;;;;;;30.62;44.58;101500.31;144994;590;5004;-84
2021/07/08 05:48:12;;;;;;;12.85;8.55;;;;;;;30.77;44.40;101508.63;144994;583;5004;-85
2021/07/08 05:50:38;;;;;;;17.25;9.20;;;;;;;30.73;44.40;101508.78;144994;603;5004;-84
2021/07/08 05:53:05;;;;;;;10.23;8.48;;;;;;;30.74;43.95;101501.63;144994;573;5004;-84
2021/07/08 05:55:31;;;;;;;16.30;8.50;;;;;;;30.77;44.31;101512.22;144994;582;5004;-84
2021/07/08 05:57:59;;;;;;;13.07;8.93;;;;;;;30.82;43.85;101515.56;144994;592;5004;-84
2021/07/08 06:00:26;;;;;;;13.25;8.90;;;;;;;30.92;44.12;101505.31;144993;568;5004;-84
2021/07/08 06:02:52;;;;;;;16.17;8.98;;;;;;;30.72;43.85;101514.22;144994;614;5002;-84
2021/07/08 06:05:19;;;;;;;13.10;8.45;;;;;;;30.74;44.06;101513.19;144994;585;5002;-84
2021/07/08 06:07:45;;;;;;;18.75;9.30;;;;;;;30.72;44.01;101508.84;144993;589;5002;-84
2021/07/08 06:10:12;;;;;;;13.15;9.02;;;;;;;30.65;44.33;101513.56;144994;573;5002;-85
2021/07/08 06:12:42;;;;;;;16.58;8.35;;;;;;;30.76;43.75;101515.81;144994;563;5002;-84
2021/07/08 06:15:09;;;;;;;12.10;8.32;;;;;;;30.85;43.73;101514.56;144994;581;5002;-84
2021/07/08 06:17:36;;;;;;;16.33;9.13;;;;;;;30.97;43.88;101514.03;144994;652;5002;-84
2021/07/08 06:20:04;;;;;;;9.45;8.43;;;;;;;31.02;44.05;101519.22;144994;563;5002;-84
2021/07/08 06:22:31;;;;;;;12.27;8.25;;;;;;;31.13;43.65;101516.91;144994;601;5002;-85
2021/07/08 06:24:57;;;;;;;11.70;7.40;;;;;;;31.24;43.22;101522.72;144993;591;5002;-84
2021/07/08 06:27:25;;;;;;;12.15;7.97;;;;;;;31.38;43.21;101524.75;144994;569;5002;-84
2021/07/08 06:29:52;;;;;;;9.60;6.70;;;;;;;31.43;42.72;101529.91;144994;588;5002;-85
2021/07/08 06:32:18;;;;;;;11.75;8.40;;;;;;;31.27;43.67;101525.22;144994;574;5002;-84
2021/07/08 06:34:46;;;;;;;11.00;7.55;;;;;;;31.28;43.87;101529.66;144994;569;5002;-83
2021/07/08 06:37:12;;;;;;;10.27;7.43;;;;;;;31.38;43.80;101529.25;144994;598;5002;-85
2021/07/08 06:39:38;;;;;;;13.80;7.72;;;;;;;31.36;44.48;101531.16;144994;618;5002;-84
2021/07/08 06:42:10;;;;;;;11.95;7.07;;;;;;;31.28;44.88;101534.16;144994;594;5002;-86
2021/07/08 06:44:37;;;;;;;7.20;6.28;;;;;;;31.36;44.57;101537.38;144994;570;5002;-84
2021/07/08 06:47:04;;;;;;;8.00;6.25;;;;;;;31.41;44.58;101531.81;144994;586;5002;-84
2021/07/08 06:49:31;;;;;;;7.03;5.75;;;;;;;31.39;43.65;101533.69;144994;572;5002;-84
2021/07/08 06:51:57;;;;;;;6.97;6.22;;;;;;;31.22;43.56;101529.94;144994;657;5002;-84
2021/07/08 06:54:24;;;;;;;8.35;6.87;;;;;;;31.20;43.45;101525.59;144994;581;5002;-84
2021/07/08 06:56:51;;;;;;;7.25;6.20;;;;;;;31.17;43.42;101525.72;144994;585;5002;-85
2021/07/08 06:59:18;;;;;;;7.65;6.00;;;;;;;31.24;43.25;101530.75;144994;586;5002;-84
2021/07/08 07:01:44;;;;;;;6.22;5.70;;;;;;;31.31;43.26;101531.34;144994;592;5002;-84
2021/07/08 07:04:11;;;;;;;7.55;6.05;;;;;;;31.28;42.15;101536.84;144994;588;4566;-83
2021/07/08 07:06:39;;;;;;;8.15;6.32;;;;;;;31.20;42.12;101536.31;144994;610;4566;-85
2021/07/08 07:09:07;;;;;;;9.85;6.22;;;;;;;31.41;41.49;101535.34;144994;570;4572;-84
2021/07/08 07:11:34;;;;;;;8.50;5.78;;;;;;;31.37;41.15;101533.75;144992;592;6002;-84
2021/07/08 07:14:00;;;;;;;8.80;6.22;;;;;;;31.35;41.20;101532.06;144992;653;6003;-86
2021/07/08 07:16:27;;;;;;;11.10;6.00;;;;;;;31.21;41.82;101532.69;144992;627;6002;-84
2021/07/08 07:18:53;;;;;;;6.75;6.10;;;;;;;30.95;43.29;101536.47;144992;619;6002;-84
2021/07/08 07:21:20;;;;;;;7.95;6.18;;;;;;;30.90;42.79;101539.34;144992;596;6003;-83
2021/07/08 07:23:47;;;;;;;7.65;5.80;;;;;;;30.93;42.80;101539.22;144992;663;6002;-84
2021/07/08 07:26:13;;;;;;;7.70;6.47;;;;;;;30.93;42.85;101540.09;144992;569;6002;-83
2021/07/08 07:28:40;;;;;;;7.50;6.15;;;;;;;30.89;42.89;101548.31;144992;573;6002;-84
2021/07/08 07:31:06;;;;;;;7.87;6.15;;;;;;;30.96;42.79;101540.88;144992;598;6002;-83
2021/07/08 07:33:33;;;;;;;9.48;6.40;;;;;;;30.96;42.61;101544.50;144992;624;6002;-84
2021/07/08 07:36:00;;;;;;;6.10;5.50;;;;;;;31.08;42.65;101541.25;144992;577;6002;-84
2021/07/08 07:38:26;;;;;;;5.80;5.07;;;;;;;31.18;42.52;101549.78;144992;592;6002;-84
2021/07/08 07:40:53;;;;;;;5.95;4.95;;;;;;;31.21;40.79;101548.75;144992;570;6002;-83
2021/07/08 07:43:20;;;;;;;10.90;5.25;;;;;;;31.32;41.41;101548.31;144992;620;6002;-85
2021/07/08 07:45:47;;;;;;;6.05;5.35;;;;;;;31.29;41.82;101552.88;144992;577;6002;-82
2021/07/08 07:48:13;;;;;;;7.53;5.72;;;;;;;31.26;41.83;101546.75;144992;573;6002;-85
2021/07/08 07:50:40;;;;;;;6.50;5.37;;;;;;;31.23;42.60;101552.28;144992;674;6002;-84
2021/07/08 07:53:06;;;;;;;5.18;4.68;;;;;;;31.42;41.72;101552.34;144992;581;6002;-84
2021/07/08 07:55:33;;;;;;;8.10;5.55;;;;;;;31.43;41.20;101552.22;144992;571;6002;-84
2021/07/08 07:58:01;;;;;;;5.37;4.87;;;;;;;31.67;40.92;101551.22;144992;579;6002;-84
2021/07/08 08:00:29;;;;;;;9.88;4.78;;;;;;;31.57;41.21;101556.16;144992;570;6002;-82
2021/07/08 08:02:56;;;;;;;11.15;5.60;;;;;;;31.55;41.56;101552.69;144992;660;6002;-85
2021/07/08 08:05:49;;;;;;;6.60;4.93;;;;;;;31.55;40.94;101552.69;144992;588;6002;-84
2021/07/08 08:08:30;;;;;;;6.57;4.60;;;;;;;31.57;40.27;101556.16;144992;625;6004;-83
2021/07/08 08:10:57;;;;;;;9.13;5.03;;;;;;;31.56;40.00;101554.41;144992;604;6004;-85
2021/07/08 08:13:25;;;;;;;6.50;4.97;;;;;;;31.58;40.05;101561.44;144992;589;6005;-83
2021/07/08 08:15:53;;;;;;;6.35;4.80;;;;;;;31.42;38.92;101553.19;144992;577;6004;-84
2021/07/08 08:18:21;;;;;;;5.47;4.97;;;;;;;31.34;39.88;101555.34;144992;622;6004;-84
2021/07/08 08:20:48;;;;;;;5.90;5.15;;;;;;;31.43;40.17;101560.28;144992;592;6005;-85
2021/07/08 08:23:15;;;;;;;6.35;5.20;;;;;;;31.34;40.88;101555.34;144992;600;6004;-85
2021/07/08 08:25:41;;;;;;;7.90;5.62;;;;;;;31.18;42.81;101556.94;144992;622;6004;-84
2021/07/08 08:28:08;;;;;;;6.68;5.53;;;;;;;31.27;41.77;101553.88;144992;573;6004;-85
2021/07/08 08:30:35;;;;;;;6.07;5.37;;;;;;;31.17;42.94;101557.91;144992;587;6004;-85
2021/07/08 08:33:01;;;;;;;7.57;5.57;;;;;;;31.23;42.84;101561.19;144992;584;6004;-83
2021/07/08 08:35:28;;;;;;;6.00;5.43;;;;;;;31.14;43.76;101558.03;144992;597;6004;-82
2021/07/08 08:37:55;;;;;;;6.68;5.97;;;;;;;31.21;43.72;101568.44;144992;566;6004;-84
2021/07/08 08:40:22;;;;;;;6.10;5.47;;;;;;;31.14;44.64;101555.34;144992;579;6004;-85
2021/07/08 08:42:49;;;;;;;7.90;5.15;;;;;;;31.09;44.60;101560.91;144992;604;6004;-83
2021/07/08 08:45:19;;;;;;;6.37;5.62;;;;;;;31.07;44.30;101557.44;144992;636;6004;-82
2021/07/08 08:48:05;;;;;;;7.00;5.65;;;;;;;31.04;44.19;101558.44;144992;589;6004;-84
2021/07/08 08:50:35;;;;;;;5.70;5.20;;;;;;;31.07;45.33;101562.81;144992;594;6002;-85
2021/07/08 08:53:03;;;;;;;8.88;5.85;;;;;;;31.06;45.80;101566.41;144992;595;6002;-83
2021/07/08 08:55:29;;;;;;;8.63;6.05;;;;;;;31.05;47.19;101565.53;144992;606;6002;-84
2021/07/08 08:57:56;;;;;;;6.37;5.78;;;;;;;30.98;47.60;101565.87;144992;579;6002;-84
2021/07/08 09:00:43;;;;;;;6.95;6.20;;;;;;;31.02;48.01;101560.31;144992;673;6002;-85
2021/07/08 09:03:13;;;;;;;8.57;6.12;;;;;;;31.02;48.38;101564.78;144991;651;6002;-85
2021/07/08 09:05:44;;;;;;;14.32;9.10;;;;;;;30.61;49.16;101560.22;144992;569;6002;-83
2021/07/08 09:08:19;;;;;;;11.25;7.12;;;;;;;30.67;48.51;101559.06;144992;571;6002;-85
2021/07/08 09:11:21;;;;;;;7.30;6.60;;;;;;;30.61;49.73;101564.66;144992;658;6002;-86
2021/07/08 09:14:02;;;;;;;10.55;6.60;;;;;;;30.79;48.75;101561.25;144992;563;6004;-84
2021/07/08 09:16:32;;;;;;;6.90;6.03;;;;;;;30.88;50.14;101570.72;144992;631;6004;-85
2021/07/08 09:19:04;;;;;;;9.48;6.10;;;;;;;31.01;48.14;101563.91;144992;628;6004;-85
2021/07/08 09:21:34;;;;;;;8.23;5.85;;;;;;;31.18;48.20;101565.87;144992;577;6004;-85
2021/07/08 09:24:26;;;;;;;10.77;6.40;;;;;;;31.18;49.13;101555.16;144992;588;6004;-83
2021/07/08 09:27:08;;;;;;;15.13;6.72;;;;;;;31.13;49.32;101570.56;144992;632;6004;-84
2021/07/08 09:29:49;;;;;;;9.18;7.15;;;;;;;31.06;49.85;101561.91;144992;654;6004;-85
2021/07/08 09:32:22;;;;;;;9.98;6.95;;;;;;;31.11;49.90;101565.25;144992;691;6004;-83
2021/07/08 09:35:07;;;;;;;11.68;9.43;;;;;;;31.34;49.52;101560.72;144992;571;6004;-85
2021/07/08 09:37:37;;;;;;;7.70;6.50;;;;;;;31.40;49.34;101563.13;144992;564;6002;-84
2021/07/08 09:40:07;;;;;;;5.57;5.07;;;;;;;31.63;48.34;101555.87;144992;569;6002;-84
2021/07/08 09:42:45;;;;;;;6.70;6.00;;;;;;;31.64;48.98;101554.91;144992;574;6002;-83
2021/07/08 09:45:17;;;;;;;6.55;5.95;;;;;;;31.68;49.36;101558.34;144992;572;6002;-83
2021/07/08 09:47:47;;;;;;;8.40;6.95;;;;;;;31.92;48.38;101562.56;144992;572;6002;-85
2021/07/08 09:50:34;;;;;;;7.07;6.37;;;;;;;31.98;48.04;101562.28;144992;601;6002;-85
2021/07/08 09:59:03;;;;;;;10.50;6.97;;;;;;;31.66;50.35;101561.12;144992;589;6002;-85
2021/07/08 10:01:33;;;;;;;7.30;6.65;;;;;;;31.55;51.49;101564.28;144992;597;6002;-85
2021/07/08 10:04:08;;;;;;;7.72;6.70;;;;;;;31.57;51.99;101562.37;144992;691;6002;-86
2021/07/08 10:06:38;;;;;;;7.15;6.45;;;;;;;31.52;52.77;101561.69;144992;621;6002;-85
2021/07/08 10:09:18;;;;;;;12.75;6.57;;;;;;;31.58;51.81;101558.78;144992;637;6002;-86
2021/07/08 10:11:56;;;;;;;8.82;6.80;;;;;;;31.67;53.71;101562.84;144992;584;6002;-80
2021/07/08 10:14:33;;;;;;;7.68;6.50;;;;;;;31.78;52.33;101552.47;144992;626;6002;-85
2021/07/08 10:17:28;;;;;;;7.50;6.60;;;;;;;31.77;53.34;101550.75;144991;593;6002;-83
2021/07/08 10:20:04;;;;;;;7.45;6.28;;;;;;;31.95;53.64;101559.75;144992;623;6002;-86
2021/07/08 10:22:37;;;;;;;9.27;6.00;;;;;;;31.98;53.31;101548.00;144992;660;6002;-85
2021/07/08 10:25:12;;;;;;;9.60;5.85;;;;;;;32.07;52.40;101550.25;144992;587;6002;-86
2021/07/08 10:27:43;;;;;;;11.32;6.12;;;;;;;32.07;52.99;101552.06;144992;609;6003;-84
2021/07/08 10:30:10;;;;;;;7.30;5.45;;;;;;;32.01;52.25;101540.66;144992;614;6002;-87
2021/07/08 10:32:38;;;;;;;7.50;5.55;;;;;;;32.00;51.63;101549.66;144992;598;6002;-83
2021/07/08 10:35:05;;;;;;;7.70;5.50;;;;;;;31.77;52.29;101531.97;144992;725;6003;-85
2021/07/08 10:37:35;;;;;;;5.97;5.20;;;;;;;31.96;51.30;101531.06;144992;649;6002;-88
2021/07/08 10:40:05;;;;;;;6.43;5.25;;;;;;;31.99;51.28;101538.97;144992;613;6002;-85
2021/07/08 10:42:50;;;;;;;6.32;5.60;;;;;;;31.92;51.81;101530.34;144991;564;6002;-84
2021/07/08 10:45:41;;;;;;;7.97;6.45;;;;;;;31.86;51.93;101527.97;144992;577;6002;-84
2021/07/08 10:48:21;;;;;;;7.72;5.85;;;;;;;31.85;52.36;101528.03;144992;613;6004;-84
2021/07/08 10:50:52;;;;;;;7.00;5.80;;;;;;;31.65;53.08;101529.84;144992;605;6004;-83
2021/07/08 10:53:33;;;;;;;7.05;5.87;;;;;;;31.83;52.63;101514.69;144992;619;6004;-84
2021/07/08 10:56:04;;;;;;;8.23;6.10;;;;;;;31.69;51.81;101519.81;144992;578;6004;-83
2021/07/08 10:58:42;;;;;;;7.25;5.60;;;;;;;31.81;51.77;101517.44;144992;567;6004;-84
2021/07/08 11:01:30;;;;;;;5.62;5.12;;;;;;;31.97;52.11;101522.09;144992;620;6004;-86
2021/07/08 11:04:02;;;;;;;11.75;6.50;;;;;;;31.92;51.58;101532.19;144992;582;6002;-85
2021/07/08 11:06:34;;;;;;;6.18;5.57;;;;;;;31.89;51.68;101510.84;144992;669;6002;-82
2021/07/08 11:09:21;;;;;;;8.10;6.05;;;;;;;31.76;51.51;101510.56;144992;607;6002;-81
2021/07/08 11:11:58;;;;;;;7.87;5.57;;;;;;;31.89;50.94;101516.22;144992;651;6004;-85
2021/07/08 11:14:25;;;;;;;5.43;4.95;;;;;;;31.89;50.73;101521.59;144992;609;6004;-83
2021/07/08 11:17:27;;;;;;;5.90;5.40;;;;;;;31.82;51.40;101512.97;144992;568;6004;-84
2021/07/08 11:19:55;;;;;;;9.77;5.50;;;;;;;31.86;50.77;101502.94;144992;711;6002;-86
2021/07/08 11:22:27;;;;;;;5.80;5.30;;;;;;;33.08;49.07;101505.88;144992;563;6002;-82
2021/07/08 11:24:55;;;;;;;6.80;4.62;;;;;;;35.25;44.47;101503.47;144992;648;6002;-84
2021/07/08 11:27:40;;;;;;;5.28;4.80;;;;;;;37.08;40.89;101497.84;144992;612;6002;-83
2021/07/08 11:30:35;;;;;;;6.35;5.12;;;;;;;37.85;39.80;101489.69;144992;640;6004;-86
2021/07/08 11:33:03;;;;;;;5.22;4.72;;;;;;;38.29;39.16;101499.94;144992;595;6002;-82
2021/07/08 11:35:36;;;;;;;5.30;4.80;;;;;;;38.70;38.96;101488.75;144992;597;6002;-86
2021/07/08 11:38:15;;;;;;;6.25;4.78;;;;;;;39.06;36.92;101492.28;144992;620;6002;-85
2021/07/08 11:40:49;;;;;;;5.35;4.50;;;;;;;39.19;37.51;101488.50;144992;655;6002;-81
2021/07/08 11:43:38;;;;;;;7.70;4.50;;;;;;;39.16;36.61;101477.87;144992;571;6002;-80
2021/07/08 11:46:12;;;;;;;5.10;4.70;;;;;;;39.08;37.18;101483.06;144992;600;6004;-84
2021/07/08 11:48:48;;;;;;;5.03;4.60;;;;;;;39.31;36.74;101488.47;144992;606;6004;-83
2021/07/08 11:51:17;;;;;;;7.03;4.68;;;;;;;39.62;35.77;101476.03;144992;582;6002;-82
2021/07/08 11:53:45;;;;;;;5.85;4.50;;;;;;;39.88;35.60;101489.31;144992;597;6002;-83